ADDS METAR Data

Data at: 0745 UTC 24 Oct 2017

METAR for:KCQX (Chatham Muni, MA, US)
Text:KCQX 240652Z AUTO 15008G16KT 120V190 10SM CLR 17/16 A3014 RMK AO2 SLP207 T01720161
Temperature: 17.2°C ( 63°F)
Dewpoint: 16.1°C ( 61°F) [RH = 93%]
Pressure (altimeter):30.14 inches Hg (1020.7 mb) [Sea level pressure: 1020.7 mb]
Winds:from the SSE (150 degrees) at 9 MPH (8 knots; 4.1 m/s) gusting to 18 MPH (16 knots; 8.2 m/s)
Visibility:10 or more sm (16+ km)
Ceiling:at least 12,000 feet AGL
Clouds:sky clear below 12,000 feet AGL
QC Flag:automated observation with no human augmentation